Time;durP1;ratioP1;P1;durP2;ratioP2;P2;SDS_P1;SDS_P2;PMS_P1;PMS_P2;Temp;Humidity;BMP_temperature;BMP_pressure;BME280_temperature;BME280_humidity;BME280_pressure;Samples;Min_cycle;Max_cycle;Signal;HPM_P1;HPM_P2
2021/10/12 00:01:40;;;;;;;30.92;11.93;;;;;;;3.43;91.68;100979.80;1750252;81;20916;-48
2021/10/12 00:04:07;;;;;;;19.17;11.18;;;;;;;3.39;91.89;100979.27;1750375;82;20987;-48
2021/10/12 00:06:34;;;;;;;22.32;11.50;;;;;;;3.35;91.92;100978.77;1750521;82;21424;-47
2021/10/12 00:09:00;;;;;;;29.27;13.55;;;;;;;3.31;91.85;100984.66;1750376;82;21092;-49
2021/10/12 00:11:27;;;;;;;35.83;14.05;;;;;;;3.25;91.96;100988.39;1737167;81;20993;-48
2021/10/12 00:13:53;;;;;;;33.70;13.10;;;;;;;3.20;92.29;100981.05;1736116;82;20913;-48
2021/10/12 00:16:20;;;;;;;31.95;12.33;;;;;;;3.16;92.55;100980.98;1736086;81;21490;-48
2021/10/12 00:18:46;;;;;;;24.07;12.00;;;;;;;3.12;92.75;100979.59;1736538;82;20869;-47
2021/10/12 00:21:13;;;;;;;29.48;12.70;;;;;;;3.08;93.02;100979.94;1736147;82;21123;-49
2021/10/12 00:23:39;;;;;;;22.80;11.90;;;;;;;3.04;93.33;100978.16;1736396;82;20941;-48
2021/10/12 00:26:06;;;;;;;24.12;10.68;;;;;;;3.00;93.59;100980.20;1736097;82;20941;-48
2021/10/12 00:28:33;;;;;;;26.15;11.43;;;;;;;2.97;93.85;100978.44;1736465;82;20985;-48
2021/10/12 00:31:00;;;;;;;23.77;11.70;;;;;;;2.95;94.10;100974.98;1736197;82;20937;-47
2021/10/12 00:33:28;;;;;;;25.52;11.60;;;;;;;2.92;94.34;100975.35;1662133;85;21141;-49
2021/10/12 00:35:55;;;;;;;25.70;12.33;;;;;;;2.88;94.58;100976.53;1661532;85;20945;-48
2021/10/12 00:38:22;;;;;;;43.52;11.95;;;;;;;2.86;94.86;100974.36;1681510;85;20922;-48
2021/10/12 00:40:48;;;;;;;252.10;24.65;;;;;;;2.84;94.98;100974.75;1681187;85;20989;-47
2021/10/12 00:43:17;;;;;;;113.45;16.40;;;;;;;2.82;95.29;100975.13;1681325;85;20957;-48
2021/10/12 00:45:44;;;;;;;220.70;23.18;;;;;;;2.80;95.54;100972.95;1681380;85;21107;-48
2021/10/12 00:48:10;;;;;;;158.12;20.25;;;;;;;2.78;95.84;100968.23;1681248;85;20973;-47
2021/10/12 00:50:38;;;;;;;45.70;12.70;;;;;;;2.78;95.97;100968.23;1681221;84;21028;-51
2021/10/12 00:53:05;;;;;;;62.40;14.28;;;;;;;2.76;96.20;100967.34;1681360;84;21351;-48
2021/10/12 00:55:32;;;;;;;69.87;13.38;;;;;;;2.73;96.37;100965.56;1681249;85;20917;-48
2021/10/12 00:57:59;;;;;;;50.40;12.82;;;;;;;2.71;96.42;100968.94;1681342;85;21040;-48
2021/10/12 01:00:26;;;;;;;129.55;16.80;;;;;;;2.69;96.46;100964.20;1661906;85;21068;-48
2021/10/12 01:02:52;;;;;;;85.97;16.20;;;;;;;2.65;96.63;100959.83;1681268;85;20968;-49
2021/10/12 01:05:19;;;;;;;101.58;18.10;;;;;;;2.61;96.70;100961.47;1681524;85;21407;-48
2021/10/12 01:07:46;;;;;;;106.17;15.75;;;;;;;2.59;96.76;100961.85;1681140;85;21000;-48
2021/10/12 01:10:13;;;;;;;75.28;15.70;;;;;;;2.56;96.94;100953.69;1681864;84;21503;-49
2021/10/12 01:12:39;;;;;;;113.45;16.55;;;;;;;2.54;97.11;100950.23;1684438;85;21496;-49
2021/10/12 01:15:07;;;;;;;32.80;11.80;;;;;;;2.53;97.28;100949.79;1684522;84;20988;-48
2021/10/12 01:17:36;;;;;;;75.17;13.32;;;;;;;2.51;97.43;100946.73;1658846;85;21015;-50
2021/10/12 01:20:09;;;;;;;70.60;13.30;;;;;;;2.52;97.76;100939.12;1684233;85;21060;-48
2021/10/12 01:22:45;;;;;;;77.30;16.10;;;;;;;2.55;98.10;100942.17;1684461;85;21665;-46
2021/10/12 01:25:13;;;;;;;43.68;13.20;;;;;;;2.53;98.22;100932.33;1684038;85;20945;-46
2021/10/12 01:27:39;;;;;;;34.23;11.60;;;;;;;2.50;98.14;100928.00;1685970;85;20973;-46
2021/10/12 01:30:08;;;;;;;33.73;12.10;;;;;;;2.46;98.01;100921.09;1711167;83;21038;-46
2021/10/12 01:32:43;;;;;;;20.90;11.83;;;;;;;2.41;97.85;100923.97;1701984;84;20932;-46
2021/10/12 01:35:11;;;;;;;28.67;11.18;;;;;;;2.34;97.83;100927.19;1711308;82;21083;-47
2021/10/12 01:37:38;;;;;;;23.85;11.25;;;;;;;2.30;97.98;100923.29;1701680;84;21050;-47
2021/10/12 01:40:06;;;;;;;25.20;11.83;;;;;;;2.28;98.07;100923.67;1711578;83;20928;-46
2021/10/12 01:42:34;;;;;;;26.12;12.68;;;;;;;2.25;98.02;100929.11;1701492;84;21105;-47
2021/10/12 01:45:02;;;;;;;27.15;12.53;;;;;;;2.19;97.91;100922.59;1711486;83;20930;-47
2021/10/12 01:47:30;;;;;;;26.33;12.10;;;;;;;2.14;97.93;100919.52;1701642;84;20948;-48
2021/10/12 01:49:57;;;;;;;19.85;11.48;;;;;;;2.13;97.95;100914.36;1711358;83;21000;-47
2021/10/12 01:52:23;;;;;;;29.52;13.05;;;;;;;2.09;97.87;100912.17;1667803;86;21054;-46
2021/10/12 01:54:50;;;;;;;21.80;10.93;;;;;;;2.03;97.88;100906.92;1698703;84;21036;-46
2021/10/12 01:57:18;;;;;;;27.95;11.25;;;;;;;2.01;97.95;100914.93;1698912;84;20912;-47
2021/10/12 01:59:46;;;;;;;19.60;11.93;;;;;;;1.98;97.99;100914.46;1698572;84;21155;-47
2021/10/12 02:02:12;;;;;;;27.05;12.53;;;;;;;1.94;97.99;100913.06;1698730;84;21054;-47
2021/10/12 02:04:38;;;;;;;20.70;11.83;;;;;;;1.91;98.10;100911.31;1698828;84;21505;-49
2021/10/12 02:07:05;;;;;;;26.12;12.20;;;;;;;1.91;98.33;100907.48;1698796;84;20980;-48
2021/10/12 02:09:31;;;;;;;28.45;12.35;;;;;;;1.90;98.38;100903.20;1698460;84;20952;-48
2021/10/12 02:11:58;;;;;;;26.33;12.35;;;;;;;1.87;98.41;100905.66;1698498;83;21497;-48
2021/10/12 02:14:24;;;;;;;22.73;11.57;;;;;;;1.86;98.51;100905.20;1698491;84;21053;-48
2021/10/12 02:16:51;;;;;;;27.58;12.33;;;;;;;1.83;98.50;100902.19;1698574;83;20921;-48
2021/10/12 02:19:17;;;;;;;19.45;12.07;;;;;;;1.81;98.53;100905.52;1698843;84;21035;-47
2021/10/12 02:21:43;;;;;;;25.77;13.40;;;;;;;1.79;98.68;100902.94;1698590;84;20873;-47
2021/10/12 02:24:10;;;;;;;22.02;11.83;;;;;;;1.79;98.83;100903.34;1698967;84;21161;-49
2021/10/12 02:26:36;;;;;;;99.52;13.98;;;;;;;1.78;98.87;100901.22;1670624;84;20967;-48
2021/10/12 02:29:03;;;;;;;26.93;12.85;;;;;;;1.77;98.92;100896.94;1698557;84;20956;-49
2021/10/12 02:31:31;;;;;;;23.92;11.88;;;;;;;1.76;99.05;100891.78;1698705;84;21514;-47
2021/10/12 02:33:57;;;;;;;22.40;13.25;;;;;;;1.79;99.39;100891.85;1698634;84;20929;-47
2021/10/12 02:36:24;;;;;;;20.12;11.73;;;;;;;1.81;99.54;100883.81;1698577;84;21998;-46
2021/10/12 02:38:50;;;;;;;20.05;12.75;;;;;;;1.81;99.49;100881.27;1698476;84;21462;-47
2021/10/12 02:41:16;;;;;;;29.15;12.60;;;;;;;1.81;99.47;100885.97;1698516;84;21011;-48
2021/10/12 02:43:43;;;;;;;27.40;14.10;;;;;;;1.79;99.42;100887.63;1698492;84;20968;-47
2021/10/12 02:46:10;;;;;;;30.52;14.13;;;;;;;1.78;99.44;100879.52;1698431;84;21056;-47
2021/10/12 02:48:36;;;;;;;31.17;12.37;;;;;;;1.78;99.43;100877.36;1698600;84;21732;-46
2021/10/12 02:51:03;;;;;;;27.65;13.18;;;;;;;1.80;99.50;100876.59;1698581;84;20936;-47
2021/10/12 02:53:29;;;;;;;26.82;12.90;;;;;;;1.82;99.58;100868.95;1698715;84;20920;-49
2021/10/12 02:55:56;;;;;;;18.73;11.53;;;;;;;1.85;99.70;100868.62;1698722;84;20980;-48
2021/10/12 02:58:22;;;;;;;21.95;12.28;;;;;;;1.91;99.79;100873.02;1698681;84;20953;-47
2021/10/12 03:00:49;;;;;;;19.52;11.97;;;;;;;1.98;99.89;100865.06;1698879;84;21165;-48
2021/10/12 03:03:15;;;;;;;23.55;12.40;;;;;;;2.06;100.00;100857.19;1698474;84;21198;-48
2021/10/12 03:05:45;;;;;;;27.65;14.10;;;;;;;2.13;100.00;100855.61;1698695;84;20957;-48
2021/10/12 03:08:12;;;;;;;28.95;13.83;;;;;;;2.17;100.00;100851.05;1698616;84;20943;-48
2021/10/12 03:10:39;;;;;;;28.62;12.55;;;;;;;2.22;99.99;100854.96;1668940;85;21562;-48
2021/10/12 03:13:05;;;;;;;24.95;12.88;;;;;;;2.22;99.86;100850.73;1688441;85;21967;-48
2021/10/12 03:15:32;;;;;;;31.12;15.45;;;;;;;2.22;99.66;100845.62;1688502;85;21579;-49
2021/10/12 03:18:00;;;;;;;27.27;14.28;;;;;;;2.19;99.52;100846.83;1688394;85;21528;-47
2021/10/12 03:20:26;;;;;;;23.35;12.60;;;;;;;2.18;99.44;100840.00;1688387;85;20913;-49
2021/10/12 03:22:53;;;;;;;33.23;14.83;;;;;;;2.18;99.49;100836.17;1688231;85;20924;-48
2021/10/12 03:25:19;;;;;;;30.00;13.58;;;;;;;2.19;99.53;100834.06;1688335;85;21160;-48
2021/10/12 03:27:46;;;;;;;22.60;12.80;;;;;;;2.21;99.64;100837.91;1688610;85;20965;-47
2021/10/12 03:30:13;;;;;;;27.20;13.22;;;;;;;2.26;99.92;100828.64;1688298;85;20946;-49
2021/10/12 03:32:39;;;;;;;27.73;12.13;;;;;;;2.31;99.98;100829.63;1688609;85;21008;-48
2021/10/12 03:35:07;;;;;;;51.98;13.38;;;;;;;2.36;100.00;100830.59;1688509;85;21063;-48
2021/10/12 03:37:34;;;;;;;44.05;14.20;;;;;;;2.41;100.00;100830.70;1644637;85;21164;-47
2021/10/12 03:40:01;;;;;;;31.00;13.53;;;;;;;2.51;100.00;100835.16;1688418;85;21000;-47
2021/10/12 03:42:27;;;;;;;43.42;13.80;;;;;;;2.63;100.00;100829.84;1688484;85;20953;-48
2021/10/12 03:44:54;;;;;;;47.25;12.47;;;;;;;2.70;100.00;100826.16;1688422;84;21012;-48
2021/10/12 03:47:20;;;;;;;32.05;13.35;;;;;;;2.76;100.00;100824.15;1688489;85;21020;-48
2021/10/12 03:49:47;;;;;;;44.53;14.18;;;;;;;2.82;100.00;100817.02;1701060;84;21145;-48
2021/10/12 03:52:14;;;;;;;41.20;13.25;;;;;;;2.87;100.00;100817.97;1700957;84;20968;-47
2021/10/12 03:54:40;;;;;;;31.27;13.83;;;;;;;2.91;100.00;100812.07;1696525;84;20881;-48
2021/10/12 03:57:06;;;;;;;35.33;13.05;;;;;;;2.93;100.00;100817.23;1696215;83;21055;-46
2021/10/12 03:59:33;;;;;;;32.63;14.28;;;;;;;2.93;100.00;100813.39;1696181;84;20964;-45
2021/10/12 04:02:00;;;;;;;25.97;13.35;;;;;;;2.94;100.00;100812.56;1696085;84;21796;-49
2021/10/12 04:04:27;;;;;;;26.93;12.85;;;;;;;2.94;100.00;100813.41;1696381;84;20920;-48
2021/10/12 04:06:55;;;;;;;51.18;13.35;;;;;;;2.94;100.00;100815.96;1696328;84;20885;-48
2021/10/12 04:09:21;;;;;;;37.67;13.70;;;;;;;2.94;100.00;100808.28;1696144;84;20956;-49
2021/10/12 04:11:49;;;;;;;31.57;12.78;;;;;;;2.97;100.00;100807.06;1666586;84;21023;-47
2021/10/12 04:14:15;;;;;;;32.13;12.47;;;;;;;2.98;100.00;100812.63;1696268;84;21131;-50
2021/10/12 04:16:42;;;;;;;47.13;12.63;;;;;;;3.02;100.00;100804.59;1696175;84;20968;-48
2021/10/12 04:19:09;;;;;;;31.40;13.15;;;;;;;3.05;100.00;100807.64;1666609;84;21055;-48
2021/10/12 04:21:35;;;;;;;21.80;12.28;;;;;;;3.09;100.00;100801.74;1696141;83;20945;-48
2021/10/12 04:24:02;;;;;;;33.48;12.85;;;;;;;3.16;100.00;100800.61;1696212;84;20980;-48
2021/10/12 04:26:28;;;;;;;32.40;12.60;;;;;;;3.24;100.00;100803.70;1696091;84;21152;-49
2021/10/12 04:28:55;;;;;;;44.58;14.23;;;;;;;3.27;100.00;100794.80;1696047;84;20952;-48
2021/10/12 04:31:21;;;;;;;27.40;12.88;;;;;;;3.30;100.00;100797.41;1696173;84;20957;-47
2021/10/12 04:33:48;;;;;;;33.20;12.37;;;;;;;3.37;100.00;100799.66;1696161;84;20940;-47
2021/10/12 04:36:15;;;;;;;43.73;14.53;;;;;;;3.44;100.00;100800.20;1696224;84;20948;-47
2021/10/12 04:38:41;;;;;;;35.30;15.18;;;;;;;3.53;100.00;100800.77;1696075;84;21074;-48
2021/10/12 04:41:08;;;;;;;43.40;15.70;;;;;;;3.59;100.00;100799.58;1666230;84;21032;-48
2021/10/12 04:43:35;;;;;;;39.15;14.53;;;;;;;3.68;100.00;100802.30;1696117;84;20885;-48
2021/10/12 04:46:02;;;;;;;49.98;15.78;;;;;;;3.78;100.00;100796.87;1696116;84;21008;-46
2021/10/12 04:48:28;;;;;;;60.85;17.17;;;;;;;4.05;100.00;100794.70;1696115;83;20929;-46
2021/10/12 04:50:56;;;;;;;45.92;15.68;;;;;;;4.05;100.00;100794.70;1696000;84;21112;-46
2021/10/12 04:53:23;;;;;;;54.48;14.50;;;;;;;4.18;100.00;100792.77;1695934;84;20916;-47
2021/10/12 04:55:51;;;;;;;53.68;17.67;;;;;;;4.34;100.00;100785.25;1696239;84;21586;-47
2021/10/12 04:58:18;;;;;;;53.23;17.82;;;;;;;4.51;100.00;100779.05;1696442;84;21098;-47
2021/10/12 05:00:44;;;;;;;44.55;17.70;;;;;;;4.65;100.00;100777.92;1696179;84;20945;-47
2021/10/12 05:03:11;;;;;;;40.92;18.02;;;;;;;4.79;100.00;100773.81;1696464;84;21144;-47
2021/10/12 05:05:37;;;;;;;50.70;16.55;;;;;;;4.95;100.00;100772.27;1696025;84;20971;-47
2021/10/12 05:08:05;;;;;;;38.05;15.68;;;;;;;5.08;100.00;100778.81;1696173;84;21010;-47
2021/10/12 05:10:32;;;;;;;39.20;17.32;;;;;;;5.22;100.00;100777.66;1696093;83;20972;-47
2021/10/12 05:12:59;;;;;;;42.43;15.88;;;;;;;5.35;100.00;100779.46;1700962;83;20975;-47
2021/10/12 05:15:27;;;;;;;35.40;15.50;;;;;;;5.51;100.00;100775.75;1711364;83;21225;-47
2021/10/12 05:17:56;;;;;;;32.95;15.55;;;;;;;5.67;99.32;100778.84;1701653;84;20920;-48
2021/10/12 05:20:22;;;;;;;38.28;16.65;;;;;;;5.77;97.92;100777.20;1684783;83;20948;-48
2021/10/12 05:22:48;;;;;;;36.13;16.23;;;;;;;5.85;96.51;100772.98;1701673;84;21054;-48
2021/10/12 05:25:15;;;;;;;40.85;16.52;;;;;;;5.92;95.52;100766.16;1711273;83;20864;-49
2021/10/12 05:27:42;;;;;;;39.33;16.90;;;;;;;5.99;94.35;100769.63;1675508;84;21841;-48
2021/10/12 05:30:10;;;;;;;30.45;15.55;;;;;;;6.04;93.31;100771.81;1660518;85;20988;-47
2021/10/12 05:32:39;;;;;;;36.70;16.50;;;;;;;6.09;92.63;100768.87;1685874;85;21020;-47
2021/10/12 05:35:07;;;;;;;35.63;16.67;;;;;;;6.18;91.97;100766.34;1685919;85;21019;-47
2021/10/12 05:37:34;;;;;;;42.80;17.07;;;;;;;6.27;90.97;100773.23;1711471;83;20955;-48
2021/10/12 05:40:01;;;;;;;42.17;16.87;;;;;;;6.36;90.12;100771.55;1701675;84;21074;-47
2021/10/12 05:42:27;;;;;;;41.45;15.75;;;;;;;6.44;89.42;100777.56;1685854;85;21060;-48
2021/10/12 05:44:54;;;;;;;36.88;15.72;;;;;;;6.53;88.68;100771.61;1685912;85;20984;-48
2021/10/12 05:47:20;;;;;;;32.63;15.78;;;;;;;6.60;87.88;100775.49;1711341;83;20884;-48
2021/10/12 05:49:47;;;;;;;32.93;16.55;;;;;;;6.69;87.30;100777.23;1701608;84;20924;-47
2021/10/12 05:52:17;;;;;;;42.88;17.10;;;;;;;6.79;86.65;100783.69;1711203;83;21490;-48
2021/10/12 05:55:22;;;;;;;38.42;17.32;;;;;;;6.88;85.81;100779.42;1701347;84;21011;-47
2021/10/12 05:57:21;;;;;;;36.00;17.35;;;;;;;6.99;85.29;100777.31;1679194;85;20896;-49
2021/10/12 05:59:47;;;;;;;37.25;16.55;;;;;;;7.15;84.54;100769.17;1711155;83;20927;-48
2021/10/12 06:02:14;;;;;;;34.78;16.02;;;;;;;7.30;84.02;100766.59;1701882;84;21426;-48
2021/10/12 06:04:40;;;;;;;34.10;16.57;;;;;;;7.48;83.58;100759.31;1711232;83;21128;-48
2021/10/12 06:07:07;;;;;;;39.65;17.05;;;;;;;7.68;83.21;100760.98;1701560;84;21008;-47
2021/10/12 06:09:33;;;;;;;32.78;15.83;;;;;;;7.89;82.72;100757.94;1711220;83;21430;-48
2021/10/12 06:12:01;;;;;;;34.48;17.02;;;;;;;8.07;81.27;100755.73;1707392;83;21527;-55
2021/10/12 06:14:29;;;;;;;38.78;15.95;;;;;;;8.26;80.20;100768.16;1692916;83;21088;-48
2021/10/12 06:16:56;;;;;;;31.37;16.20;;;;;;;8.43;78.84;100760.34;1717200;83;21102;-47
2021/10/12 06:19:22;;;;;;;35.90;14.70;;;;;;;8.58;78.01;100755.98;1717055;83;20958;-48
2021/10/12 06:21:49;;;;;;;29.35;14.55;;;;;;;8.74;76.76;100758.06;1717214;83;21080;-49
2021/10/12 06:24:15;;;;;;;34.90;16.62;;;;;;;8.87;75.98;100762.27;1721721;83;21422;-48
2021/10/12 06:26:42;;;;;;;37.00;16.32;;;;;;;8.97;75.01;100754.03;1687528;83;21483;-48
2021/10/12 06:29:08;;;;;;;37.35;16.05;;;;;;;9.07;73.03;100752.25;1687367;85;22027;-48
2021/10/12 06:31:35;;;;;;;41.77;17.82;;;;;;;9.16;72.35;100757.33;1687383;85;21053;-49
2021/10/12 06:34:02;;;;;;;36.33;16.30;;;;;;;9.29;72.41;100758.54;1703577;84;21445;-49
2021/10/12 06:36:28;;;;;;;48.80;19.10;;;;;;;9.44;72.19;100748.05;1703375;84;21348;-47
2021/10/12 06:38:55;;;;;;;58.78;20.72;;;;;;;9.64;71.89;100737.97;1721683;83;20927;-49
2021/10/12 06:41:21;;;;;;;48.28;21.42;;;;;;;9.76;71.60;100740.45;1721672;83;21133;-46
2021/10/12 06:43:48;;;;;;;41.60;19.65;;;;;;;9.88;71.26;100741.17;1661628;85;21057;-49
2021/10/12 06:46:14;;;;;;;41.25;19.57;;;;;;;9.96;70.55;100736.76;1687431;83;20966;-47
2021/10/12 06:48:41;;;;;;;44.77;19.50;;;;;;;10.02;69.31;100741.02;1703278;84;20979;-47
2021/10/12 06:51:07;;;;;;;38.10;19.67;;;;;;;10.08;69.19;100741.39;1703343;84;20964;-49
2021/10/12 06:53:33;;;;;;;43.63;19.82;;;;;;;10.13;68.93;100732.70;1703407;84;21191;-49
2021/10/12 06:56:00;;;;;;;53.15;19.62;;;;;;;10.16;68.05;100734.38;1703327;84;20920;-48
2021/10/12 06:58:26;;;;;;;48.55;18.35;;;;;;;10.24;67.29;100729.12;1703296;84;20971;-48
2021/10/12 07:00:53;;;;;;;64.25;19.05;;;;;;;10.34;67.11;100728.11;1677447;84;20928;-46
2021/10/12 07:03:19;;;;;;;35.88;17.30;;;;;;;10.48;66.97;100730.55;1703418;84;21007;-47
2021/10/12 07:05:46;;;;;;;34.18;15.38;;;;;;;10.64;67.10;100733.34;1721645;83;21139;-47
2021/10/12 07:08:12;;;;;;;29.65;16.12;;;;;;;10.84;65.92;100723.14;1687372;85;20871;-47
2021/10/12 07:10:39;;;;;;;37.80;15.63;;;;;;;11.06;64.71;100718.92;1687307;85;20875;-48
2021/10/12 07:13:05;;;;;;;49.95;19.20;;;;;;;11.27;63.48;100709.92;1669727;84;21310;-48
2021/10/12 07:15:32;;;;;;;39.85;16.85;;;;;;;11.52;62.31;100699.13;1696127;84;20992;-48
2021/10/12 07:17:59;;;;;;;36.73;18.57;;;;;;;11.73;60.53;100692.66;1696201;84;21037;-47
2021/10/12 07:20:25;;;;;;;41.73;18.65;;;;;;;11.99;59.88;100690.45;1695745;84;20960;-47
2021/10/12 07:22:52;;;;;;;30.80;15.03;;;;;;;12.15;58.98;100683.22;1695993;84;21545;-48
2021/10/12 07:28:18;;;;;;;29.35;15.28;;;;;;;12.31;55.96;100675.95;1798577;79;22730;-48
2021/10/12 07:30:45;;;;;;;30.62;15.65;;;;;;;12.31;57.04;100677.25;1758339;81;20912;-48
2021/10/12 07:33:11;;;;;;;50.15;22.90;;;;;;;12.40;56.53;100672.31;1739087;81;21206;-48
2021/10/12 07:35:43;;;;;;;35.23;17.07;;;;;;;12.54;56.33;100668.97;1758272;81;20872;-48
2021/10/12 07:38:06;;;;;;;37.15;17.73;;;;;;;12.66;55.31;100669.12;1757971;81;20948;-46
2021/10/12 07:40:35;;;;;;;34.00;17.07;;;;;;;12.76;55.25;100661.97;1758138;80;20940;-48
2021/10/12 07:43:01;;;;;;;38.05;17.62;;;;;;;12.91;54.51;100664.63;1758242;80;21585;-46
2021/10/12 07:45:28;;;;;;;35.55;18.35;;;;;;;13.04;54.54;100662.12;1758567;81;22000;-47
2021/10/12 07:47:56;;;;;;;34.55;17.55;;;;;;;13.21;53.61;100658.23;1758431;81;20921;-47
2021/10/12 07:50:23;;;;;;;35.03;17.65;;;;;;;13.30;53.99;100655.38;1757761;81;20948;-49
2021/10/12 07:52:50;;;;;;;35.43;19.37;;;;;;;13.48;53.80;100657.13;1749918;82;20881;-48
2021/10/12 07:55:28;;;;;;;51.05;25.48;;;;;;;13.67;53.69;100647.52;1750067;82;20861;-47
2021/10/12 07:57:44;;;;;;;40.35;20.62;;;;;;;13.88;53.60;100643.44;1748056;82;21172;-47
2021/10/12 08:00:12;;;;;;;40.83;21.93;;;;;;;14.12;52.89;100648.81;1749892;82;21471;-48
2021/10/12 08:02:39;;;;;;;42.53;20.80;;;;;;;14.29;51.54;100645.25;1749856;82;20881;-48
2021/10/12 08:05:07;;;;;;;34.33;20.35;;;;;;;14.38;51.32;100641.48;1749847;82;21718;-47
2021/10/12 08:07:33;;;;;;;38.35;23.40;;;;;;;14.37;51.12;100643.25;1749981;82;20974;-48
2021/10/12 08:10:00;;;;;;;41.53;22.20;;;;;;;14.30;51.75;100640.45;1749858;82;21050;-48
2021/10/12 08:12:26;;;;;;;42.13;22.05;;;;;;;14.22;51.69;100630.27;1750100;82;20837;-48
2021/10/12 08:14:59;;;;;;;41.73;20.95;;;;;;;14.29;51.37;100633.54;1749845;82;20908;-48
2021/10/12 08:17:21;;;;;;;39.38;20.32;;;;;;;14.41;51.83;100626.23;1749332;82;20905;-48
2021/10/12 08:19:48;;;;;;;42.03;20.05;;;;;;;14.56;51.90;100630.09;1749985;81;21101;-48
2021/10/12 08:22:15;;;;;;;55.40;23.40;;;;;;;14.71;51.86;100627.47;1749869;81;21136;-48
2021/10/12 08:24:42;;;;;;;64.60;23.95;;;;;;;14.92;50.80;100625.92;1750037;82;20908;-48
2021/10/12 08:27:08;;;;;;;59.13;23.22;;;;;;;15.03;50.92;100621.17;1750296;82;21042;-48
2021/10/12 09:10:45;;;;;;;51.45;16.77;;;;;;;17.23;48.89;100560.84;1885605;75;22674;-45
2021/10/12 09:13:12;;;;;;;32.98;15.90;;;;;;;17.38;48.75;100558.47;1839796;77;20990;-45
2021/10/12 09:15:39;;;;;;;40.80;15.50;;;;;;;17.64;48.09;100555.12;1830907;77;21130;-45
2021/10/12 09:18:07;;;;;;;27.20;14.80;;;;;;;17.83;48.45;100563.42;1803041;77;20963;-45
2021/10/12 09:20:35;;;;;;;29.02;14.33;;;;;;;17.89;47.89;100563.13;1852796;77;20919;-46
2021/10/12 09:23:07;;;;;;;31.35;14.18;;;;;;;17.99;47.43;100558.30;1836273;77;22135;-45
2021/10/12 09:25:44;;;;;;;31.02;12.60;;;;;;;17.91;47.29;100550.81;1831394;77;20973;-46
2021/10/12 09:28:27;;;;;;;27.42;12.10;;;;;;;17.89;47.53;100559.20;1844128;77;21118;-44
2021/10/12 09:30:56;;;;;;;28.02;11.68;;;;;;;17.81;48.08;100559.11;1849868;77;21013;-45
2021/10/12 09:33:24;;;;;;;24.90;11.90;;;;;;;17.90;47.97;100555.19;1843977;77;20939;-45
2021/10/12 09:35:51;;;;;;;23.38;12.05;;;;;;;18.01;47.59;100559.08;1849380;77;20939;-45
2021/10/12 09:38:19;;;;;;;31.73;12.45;;;;;;;18.02;47.74;100551.16;1841453;77;21081;-44
2021/10/12 09:40:46;;;;;;;31.05;13.03;;;;;;;17.98;47.24;100550.89;1859869;77;21787;-44
2021/10/12 09:43:17;;;;;;;33.58;12.82;;;;;;;17.75;48.00;100550.22;1860549;77;20887;-46
2021/10/12 09:45:45;;;;;;;23.42;12.40;;;;;;;17.64;48.59;100547.27;1859876;77;20943;-45
2021/10/12 09:48:34;;;;;;;31.15;12.65;;;;;;;17.68;48.28;100534.42;1852169;77;21626;-46
2021/10/12 09:51:16;;;;;;;28.80;14.15;;;;;;;17.87;48.58;100533.08;1837406;77;20920;-44
2021/10/12 09:53:45;;;;;;;30.57;13.60;;;;;;;18.16;47.19;100530.02;1859856;77;21141;-46
2021/10/12 09:56:13;;;;;;;21.97;13.25;;;;;;;18.35;46.51;100523.39;1850864;77;20951;-46
2021/10/12 09:58:43;;;;;;;26.77;14.25;;;;;;;18.42;45.38;100524.77;1855149;76;20970;-45
2021/10/12 10:01:09;;;;;;;97.33;17.25;;;;;;;18.35;45.11;100525.56;1816858;77;20951;-46
2021/10/12 10:03:37;;;;;;;52.35;14.35;;;;;;;18.03;46.26;100516.67;1818194;77;20945;-45
2021/10/12 10:06:13;;;;;;;32.48;14.40;;;;;;;17.80;46.92;100514.67;1839533;77;21116;-45
2021/10/12 10:08:48;;;;;;;20.52;12.58;;;;;;;17.58;47.04;100509.61;1808603;77;21544;-44
2021/10/12 10:11:16;;;;;;;32.93;13.00;;;;;;;17.18;48.36;100504.45;1844978;76;20959;-45
2021/10/12 10:13:43;;;;;;;30.10;13.22;;;;;;;17.03;49.56;100502.91;1833115;78;21021;-45
2021/10/12 10:16:10;;;;;;;18.48;11.75;;;;;;;17.07;49.77;100498.41;1836039;76;20978;-45
2021/10/12 10:18:39;;;;;;;26.68;12.65;;;;;;;17.20;49.98;100494.30;1796948;78;21518;-46
2021/10/12 10:21:06;;;;;;;26.65;12.37;;;;;;;17.35;49.60;100497.14;1798956;77;20972;-45
2021/10/12 10:24:03;;;;;;;25.37;12.40;;;;;;;17.47;48.91;100490.02;1823879;77;21300;-46
2021/10/12 10:26:35;;;;;;;25.20;13.05;;;;;;;17.61;48.81;100486.74;1831401;77;20990;-47
2021/10/12 10:29:35;;;;;;;28.85;12.07;;;;;;;17.79;48.32;100494.65;1828742;77;20842;-46
2021/10/12 10:32:00;;;;;;;42.65;13.40;;;;;;;17.86;48.14;100488.66;1827283;77;21121;-46
2021/10/12 11:21:04;;;;;;;24.30;10.98;;;;;;;17.99;48.77;100429.99;1824688;77;22110;-44
2021/10/12 11:23:35;;;;;;;23.02;10.80;;;;;;;18.20;48.10;100432.02;1792151;78;20979;-45
2021/10/12 11:26:09;;;;;;;30.55;12.13;;;;;;;18.29;47.80;100431.53;1798860;78;21519;-44
2021/10/12 11:28:39;;;;;;;17.15;10.43;;;;;;;18.36;47.57;100424.21;1798895;78;21010;-44
2021/10/12 11:31:11;;;;;;;46.98;10.85;;;;;;;18.38;47.16;100411.42;1801728;78;20944;-45
2021/10/12 11:33:43;;;;;;;25.55;10.32;;;;;;;18.36;47.09;100421.14;1810539;78;21013;-44
2021/10/12 11:36:11;;;;;;;25.62;9.65;;;;;;;18.31;47.09;100422.30;1803835;78;20948;-45
2021/10/12 11:38:43;;;;;;;29.30;10.40;;;;;;;18.30;47.30;100423.22;1806712;78;21844;-45
2021/10/12 11:41:16;;;;;;;26.60;10.98;;;;;;;18.15;47.29;100415.21;1808854;78;20944;-44
2021/10/12 11:43:43;;;;;;;25.30;9.98;;;;;;;18.14;47.69;100411.38;1803349;78;20956;-44
2021/10/12 11:46:10;;;;;;;28.15;10.50;;;;;;;18.22;47.51;100405.27;1766246;80;21575;-45
2021/10/12 11:48:37;;;;;;;28.00;10.50;;;;;;;18.41;46.96;100396.47;1795043;78;20959;-45
2021/10/12 11:51:16;;;;;;;29.37;9.55;;;;;;;18.66;46.21;100394.69;1815060;78;21152;-45
2021/10/12 11:53:44;;;;;;;32.93;9.85;;;;;;;18.90;45.36;100392.55;1793069;78;21565;-44
2021/10/12 11:56:13;;;;;;;35.63;11.08;;;;;;;19.08;44.98;100392.50;1800871;78;20864;-43
2021/10/12 11:58:40;;;;;;;25.48;9.38;;;;;;;19.14;44.69;100392.16;1813417;78;20861;-44
2021/10/12 12:01:09;;;;;;;32.80;10.10;;;;;;;19.12;45.25;100391.84;1807140;78;20912;-44
2021/10/12 12:03:38;;;;;;;41.37;11.93;;;;;;;19.16;44.96;100395.54;1802560;78;21166;-43
2021/10/12 12:06:05;;;;;;;17.12;8.73;;;;;;;19.07;45.07;100393.41;1772677;78;20935;-45
2021/10/12 12:08:33;;;;;;;23.85;10.32;;;;;;;18.98;44.81;100386.02;1803859;78;20984;-45
2021/10/12 12:10:59;;;;;;;15.03;9.10;;;;;;;18.98;44.67;100379.47;1805800;78;20931;-47
2021/10/12 12:13:30;;;;;;;27.27;10.45;;;;;;;19.09;44.68;100379.28;1819267;78;20963;-45
2021/10/12 12:15:57;;;;;;;21.15;10.88;;;;;;;19.22;44.96;100380.76;1801337;78;21166;-44
2021/10/12 12:18:24;;;;;;;23.67;10.93;;;;;;;19.30;44.28;100378.16;1815257;78;21069;-45
2021/10/12 12:20:57;;;;;;;33.20;10.50;;;;;;;19.16;43.88;100370.62;1800580;78;20899;-44
2021/10/12 12:23:48;;;;;;;78.87;12.05;;;;;;;19.19;44.23;100377.00;1788010;79;20927;-45
2021/10/12 12:26:23;;;;;;;25.32;11.03;;;;;;;19.28;44.37;100373.47;1765435;79;20924;-45
2021/10/12 12:28:49;;;;;;;;;;;;;;;19.40;43.77;100371.48;1791016;79;21147;-45
2021/10/12 12:31:26;;;;;;;26.15;10.18;;;;;;;19.48;43.83;100376.30;1802490;78;20110;-47
2021/10/12 12:33:56;;;;;;;19.65;10.03;;;;;;;19.56;42.89;100366.19;1793478;79;20932;-47
2021/10/12 12:36:33;;;;;;;49.95;11.43;;;;;;;19.61;43.15;100367.25;1749239;79;20908;-45
2021/10/12 12:39:08;;;;;;;23.85;10.95;;;;;;;19.72;43.30;100366.14;1765328;79;21000;-44
2021/10/12 12:41:42;;;;;;;27.10;11.88;;;;;;;19.92;42.71;100366.79;1806243;79;21162;-45
2021/10/12 12:44:10;;;;;;;23.18;11.18;;;;;;;20.07;42.42;100360.61;1788591;79;21745;-45
2021/10/12 12:46:41;;;;;;;75.17;12.50;;;;;;;20.25;42.35;100356.50;1797572;78;20983;-46